createdAt,value
2019-05-16T00:00:11.127Z,66.90
2019-05-16T00:02:39.873Z,68.10
2019-05-16T00:05:09.194Z,67.60
2019-05-16T00:07:39.127Z,67.90
2019-05-16T00:10:08.644Z,68.50
2019-05-16T00:12:39.554Z,67.40
2019-05-16T00:15:09.069Z,68.40
2019-05-16T00:17:38.762Z,69.10
2019-05-16T00:20:09.306Z,68.60
2019-05-16T00:22:39.321Z,68.60
2019-05-16T00:25:09.003Z,69.10
2019-05-16T00:27:38.673Z,69.40
2019-05-16T00:30:09.175Z,69.40
2019-05-16T00:32:39.120Z,69.20
2019-05-16T00:35:09.307Z,70.70
2019-05-16T00:37:39.221Z,70.60
2019-05-16T00:40:08.539Z,70.00
2019-05-16T00:42:39.053Z,70.60
2019-05-16T00:45:09.559Z,70.70
2019-05-16T00:47:39.083Z,71.40
2019-05-16T00:50:09.326Z,70.90
2019-05-16T00:52:39.506Z,71.70
2019-05-16T00:55:08.946Z,72.10
2019-05-16T00:57:38.904Z,71.70
2019-05-16T01:00:09.101Z,71.90
2019-05-16T01:02:41.296Z,73.10
2019-05-16T01:05:10.881Z,74.00
2019-05-16T01:07:39.905Z,73.80
2019-05-16T01:10:11.251Z,72.80
2019-05-16T01:12:40.083Z,72.40
2019-05-16T01:15:09.963Z,72.60
2019-05-16T01:17:40.174Z,73.50
2019-05-16T01:20:10.608Z,73.10
2019-05-16T01:22:40.334Z,73.80
2019-05-16T01:25:09.769Z,74.20
2019-05-16T01:27:38.897Z,74.50
2019-05-16T01:30:10.117Z,75.80
2019-05-16T01:32:40.820Z,74.00
2019-05-16T01:35:11.973Z,74.00
2019-05-16T01:37:42.787Z,74.50
2019-05-16T01:40:12.173Z,75.00
2019-05-16T01:42:40.348Z,75.40
2019-05-16T01:45:11.728Z,75.50
2019-05-16T01:47:43.835Z,74.90
2019-05-16T01:50:15.089Z,76.80
2019-05-16T01:52:43.973Z,75.60
2019-05-16T01:55:14.600Z,75.50
2019-05-16T01:57:44.900Z,75.60
2019-05-16T02:00:14.210Z,76.10
2019-05-16T02:02:43.114Z,75.20
2019-05-16T02:05:12.079Z,76.20
2019-05-16T02:07:41.776Z,76.40
2019-05-16T02:10:12.814Z,75.10
2019-05-16T02:12:43.341Z,75.90
2019-05-16T02:15:13.637Z,76.50
2019-05-16T02:17:42.304Z,77.00
2019-05-16T02:20:12.270Z,75.20
2019-05-16T02:22:41.666Z,74.90
2019-05-16T02:25:10.128Z,76.30
2019-05-16T02:27:41.254Z,75.90
2019-05-16T02:30:12.942Z,76.30
2019-05-16T02:32:42.891Z,76.00
2019-05-16T02:35:13.873Z,75.70
2019-05-16T02:37:43.805Z,75.60
2019-05-16T02:40:15.900Z,75.40
2019-05-16T02:42:51.521Z,74.90
2019-05-16T02:45:24.885Z,74.30
2019-05-16T02:47:55.200Z,74.10
2019-05-16T02:50:26.753Z,73.80
2019-05-16T02:52:55.549Z,75.40
2019-05-16T02:55:25.816Z,73.50
2019-05-16T02:57:54.577Z,74.10
2019-05-16T03:00:41.822Z,74.10
2019-05-16T03:03:11.608Z,74.50
2019-05-16T03:05:41.893Z,73.80
2019-05-16T03:08:13.614Z,73.10
2019-05-16T03:10:43.124Z,74.30
2019-05-16T03:13:12.706Z,73.20
2019-05-16T03:15:43.060Z,73.50
2019-05-16T03:18:12.866Z,72.80
2019-05-16T03:20:44.231Z,72.90
2019-05-16T03:23:13.012Z,71.10
2019-05-16T03:25:42.046Z,72.40
2019-05-16T03:28:11.219Z,72.10
2019-05-16T03:30:44.836Z,70.80
2019-05-16T03:33:19.411Z,71.80
2019-05-16T03:35:44.518Z,69.80
2019-05-16T03:38:12.108Z,67.00
2019-05-16T03:40:41.488Z,65.70
2019-05-16T03:43:11.688Z,63.50
2019-05-16T03:45:41.774Z,62.30
2019-05-16T03:48:12.001Z,62.10
2019-05-16T03:50:41.322Z,59.80
2019-05-16T03:53:11.662Z,59.80
2019-05-16T03:55:41.062Z,59.50
2019-05-16T03:58:11.773Z,61.60
2019-05-16T04:00:55.061Z,60.40
2019-05-16T04:03:28.063Z,60.30
2019-05-16T04:05:54.666Z,59.70
2019-05-16T04:08:24.831Z,59.20
2019-05-16T04:10:54.057Z,58.10
2019-05-16T04:13:22.785Z,54.80
2019-05-16T04:15:52.865Z,53.40
2019-05-16T04:18:22.523Z,54.40
2019-05-16T04:20:52.569Z,53.50
2019-05-16T04:23:21.948Z,53.50
2019-05-16T04:25:53.035Z,53.40
2019-05-16T04:28:22.891Z,55.00
2019-05-16T04:30:52.562Z,53.40
2019-05-16T04:33:22.688Z,54.50
2019-05-16T04:35:52.871Z,54.60
2019-05-16T04:38:34.912Z,54.00
2019-05-16T04:40:52.965Z,53.80
2019-05-16T04:43:22.586Z,52.30
2019-05-16T04:45:52.463Z,52.70
2019-05-16T04:48:22.892Z,52.00
2019-05-16T04:50:52.483Z,50.80
2019-05-16T04:53:21.747Z,50.20
2019-05-16T04:55:51.782Z,51.90
2019-05-16T04:58:23.356Z,50.30
2019-05-16T05:00:52.145Z,50.40
2019-05-16T05:03:22.325Z,49.70
2019-05-16T05:05:51.859Z,48.90
2019-05-16T05:08:21.931Z,46.60
2019-05-16T05:10:52.080Z,45.80
2019-05-16T05:13:22.313Z,44.00
2019-05-16T05:15:51.830Z,44.10
2019-05-16T05:18:21.544Z,44.80
2019-05-16T05:20:52.162Z,45.40
2019-05-16T05:23:21.569Z,47.50
2019-05-16T05:25:51.538Z,45.90
2019-05-16T05:28:21.372Z,44.10
2019-05-16T05:30:50.643Z,42.40
2019-05-16T05:33:20.918Z,41.20
2019-05-16T05:35:50.947Z,39.60
2019-05-16T05:38:21.392Z,39.50
2019-05-16T05:40:51.275Z,37.60
2019-05-16T05:43:21.515Z,36.00
2019-05-16T05:45:51.435Z,33.30
2019-05-16T05:48:21.519Z,33.20
2019-05-16T05:50:51.551Z,31.00
2019-05-16T05:53:20.975Z,27.90
2019-05-16T05:55:51.777Z,28.70
2019-05-16T05:58:21.284Z,27.80
2019-05-16T06:00:51.962Z,28.50
2019-05-16T06:03:22.289Z,29.60
2019-05-16T06:05:51.162Z,29.70
2019-05-16T06:08:20.766Z,30.30
2019-05-16T06:10:50.344Z,30.00
2019-05-16T06:13:20.857Z,33.00
2019-05-16T06:15:51.038Z,32.90
2019-05-16T06:18:20.414Z,33.30
2019-05-16T06:20:51.155Z,34.00
2019-05-16T06:23:20.634Z,33.80
2019-05-16T06:25:50.891Z,34.80
2019-05-16T06:28:20.653Z,34.90
2019-05-16T06:30:51.403Z,35.30
2019-05-16T06:33:20.458Z,34.90
2019-05-16T06:35:51.185Z,34.50
2019-05-16T06:38:21.012Z,32.00
2019-05-16T06:40:52.666Z,30.00
2019-05-16T06:43:20.728Z,29.80
2019-05-16T06:45:51.444Z,28.80
2019-05-16T06:48:21.163Z,28.70
2019-05-16T06:50:51.506Z,27.30
2019-05-16T06:53:21.099Z,27.50
2019-05-16T06:55:50.315Z,28.40
2019-05-16T06:58:21.864Z,28.30
2019-05-16T07:00:52.311Z,27.60
2019-05-16T07:03:20.776Z,27.40
2019-05-16T07:05:50.590Z,27.70
2019-05-16T07:08:20.627Z,27.90
2019-05-16T07:10:50.956Z,26.50
2019-05-16T07:13:20.096Z,27.30
2019-05-16T07:15:50.241Z,27.20
2019-05-16T07:18:20.797Z,25.40
2019-05-16T07:20:51.031Z,26.60
2019-05-16T07:23:24.640Z,25.90
2019-05-16T07:25:53.320Z,24.60
2019-05-16T07:28:22.140Z,26.30
2019-05-16T07:30:51.024Z,25.70
2019-05-16T07:33:21.165Z,24.20
2019-05-16T07:35:51.220Z,26.90
2019-05-16T07:38:20.705Z,26.50
2019-05-16T07:40:51.172Z,25.90
2019-05-16T07:43:20.573Z,26.10
2019-05-16T07:45:51.313Z,24.60
2019-05-16T07:48:21.578Z,25.40
2019-05-16T07:50:50.503Z,26.80
2019-05-16T07:53:21.379Z,26.80
2019-05-16T07:55:51.007Z,26.80
2019-05-16T07:58:21.640Z,26.70
2019-05-16T08:01:02.146Z,26.80
2019-05-16T08:03:21.088Z,26.90
2019-05-16T08:05:51.526Z,27.20
2019-05-16T08:08:23.831Z,26.50
2019-05-16T08:10:51.371Z,25.40
2019-05-16T08:13:21.180Z,27.30
2019-05-16T08:15:50.602Z,26.30
2019-05-16T08:18:21.368Z,26.40
2019-05-16T08:20:52.201Z,25.80
2019-05-16T08:23:22.396Z,25.70
2019-05-16T08:25:51.142Z,25.00
2019-05-16T08:28:21.641Z,24.70
2019-05-16T08:30:52.873Z,26.10
2019-05-16T08:33:21.877Z,26.00
2019-05-16T08:35:51.764Z,26.70
2019-05-16T08:38:21.701Z,25.50
2019-05-16T08:43:21.999Z,24.30
2019-05-16T08:45:52.132Z,24.70
2019-05-16T08:48:23.222Z,24.10
2019-05-16T08:50:05.960Z,25.60
2019-05-16T08:50:54.748Z,24.40
2019-05-16T08:53:22.069Z,24.80
2019-05-16T08:55:51.103Z,24.90
2019-05-16T08:58:22.698Z,22.90
2019-05-16T09:00:55.391Z,24.10
2019-05-16T09:03:22.237Z,25.40
2019-05-16T09:05:53.346Z,25.70
2019-05-16T09:08:21.713Z,26.90
2019-05-16T09:11:00.797Z,26.70
2019-05-16T09:13:20.754Z,26.30
2019-05-16T09:15:49.888Z,25.70
2019-05-16T09:18:18.582Z,24.60
2019-05-16T09:20:49.902Z,25.70
2019-05-16T09:23:18.130Z,24.70
2019-05-16T09:25:48.669Z,24.50
2019-05-16T09:28:16.947Z,25.00
2019-05-16T09:30:46.910Z,24.30
2019-05-16T09:33:17.715Z,24.00
2019-05-16T09:35:47.762Z,24.60
2019-05-16T09:38:20.447Z,23.40
2019-05-16T09:40:48.077Z,23.50
2019-05-16T09:43:22.501Z,23.00
2019-05-16T09:45:47.640Z,24.40
2019-05-16T09:48:18.948Z,23.00
2019-05-16T09:50:47.752Z,24.00
2019-05-16T09:53:17.292Z,24.40
2019-05-16T09:55:47.131Z,24.00
2019-05-16T09:58:18.126Z,24.20
2019-05-16T10:00:47.634Z,26.30
2019-05-16T10:03:20.076Z,25.20
2019-05-16T10:05:47.397Z,24.90
2019-05-16T10:08:17.311Z,24.30
2019-05-16T10:10:46.212Z,24.40
2019-05-16T10:13:17.951Z,25.40
2019-05-16T10:15:47.330Z,25.90
2019-05-16T10:18:16.833Z,26.50
2019-05-16T10:20:46.146Z,26.80
2019-05-16T10:23:18.019Z,27.40
2019-05-16T10:25:47.957Z,28.30
2019-05-16T10:28:17.414Z,27.90
2019-05-16T10:30:47.038Z,28.00
2019-05-16T10:33:18.916Z,28.60
2019-05-16T10:35:48.206Z,28.60
2019-05-16T10:38:17.098Z,29.10
2019-05-16T10:40:47.584Z,29.20
2019-05-16T10:43:17.258Z,28.20
2019-05-16T10:45:46.566Z,28.40
2019-05-16T10:48:17.626Z,28.50
2019-05-16T10:50:47.844Z,26.90
2019-05-16T10:53:41.857Z,27.80
2019-05-16T10:55:47.751Z,28.90
2019-05-16T10:58:34.837Z,29.20
2019-05-16T11:01:10.940Z,29.60
2019-05-16T11:03:17.612Z,28.60
2019-05-16T11:06:01.135Z,28.40
2019-05-16T11:08:16.737Z,28.30
2019-05-16T11:10:47.471Z,28.30
2019-05-16T11:13:19.835Z,29.10
2019-05-16T11:15:47.029Z,28.10
2019-05-16T11:18:17.598Z,28.70
2019-05-16T11:20:49.071Z,29.70
2019-05-16T11:23:22.357Z,28.80
2019-05-16T11:25:47.406Z,30.10
2019-05-16T11:28:17.748Z,29.90
2019-05-16T11:30:47.580Z,30.00
2019-05-16T11:33:17.379Z,29.00
2019-05-16T11:35:47.632Z,29.30
2019-05-16T11:38:17.806Z,28.00
2019-05-16T11:40:47.492Z,29.50
2019-05-16T11:43:21.396Z,28.00
2019-05-16T11:45:47.372Z,29.20
2019-05-16T11:48:17.178Z,27.50
2019-05-16T11:50:47.959Z,26.80
2019-05-16T11:53:17.642Z,27.50
2019-05-16T11:55:54.532Z,27.80
2019-05-16T11:58:17.970Z,28.10
2019-05-16T12:00:48.131Z,28.50
2019-05-16T12:03:17.321Z,28.80
2019-05-16T12:05:47.993Z,28.50
2019-05-16T12:08:17.459Z,29.20
2019-05-16T12:10:47.250Z,29.40
2019-05-16T12:13:27.301Z,29.60
2019-05-16T12:15:46.757Z,29.40
2019-05-16T12:18:17.335Z,29.30
2019-05-16T12:20:46.331Z,29.90
2019-05-16T12:23:16.876Z,28.50
2019-05-16T12:25:47.353Z,28.30
2019-05-16T12:28:16.821Z,28.60
2019-05-16T12:30:47.157Z,28.80
2019-05-16T12:33:18.718Z,28.50
2019-05-16T12:35:47.438Z,29.50
2019-05-16T12:38:17.059Z,28.80
2019-05-16T12:40:47.829Z,28.90
2019-05-16T12:43:18.094Z,28.50
2019-05-16T12:45:47.475Z,28.60
2019-05-16T12:48:19.900Z,28.90
2019-05-16T12:50:47.942Z,28.60
2019-05-16T12:53:17.124Z,29.10
2019-05-16T12:55:47.671Z,28.70
2019-05-16T12:58:24.871Z,28.40
2019-05-16T13:00:53.964Z,28.60
2019-05-16T13:03:17.151Z,28.90
2019-05-16T13:05:47.805Z,28.20
2019-05-16T13:08:17.422Z,28.70
2019-05-16T13:10:46.996Z,28.90
2019-05-16T13:13:17.800Z,29.40
2019-05-16T13:15:47.611Z,28.80
2019-05-16T13:18:17.065Z,29.40
2019-05-16T13:20:46.766Z,29.90
2019-05-16T13:23:18.245Z,28.80
2019-05-16T13:25:48.219Z,29.30
2019-05-16T13:28:17.160Z,29.10
2019-05-16T13:30:47.146Z,29.10
2019-05-16T13:33:17.713Z,28.30
2019-05-16T13:35:47.148Z,28.90
2019-05-16T13:38:17.334Z,29.40
2019-05-16T13:40:46.516Z,29.50
2019-05-16T13:43:17.452Z,28.90
2019-05-16T13:45:47.171Z,29.40
2019-05-16T13:48:17.180Z,29.00
2019-05-16T13:50:47.308Z,28.60
2019-05-16T13:53:16.423Z,28.90
2019-05-16T13:55:45.695Z,28.80
2019-05-16T13:58:17.644Z,28.80
2019-05-16T14:00:47.843Z,29.40
2019-05-16T14:03:17.899Z,29.80
2019-05-16T14:05:47.737Z,29.20
2019-05-16T14:08:17.072Z,29.40
2019-05-16T14:10:48.588Z,29.20
2019-05-16T14:13:16.660Z,29.30
2019-05-16T14:15:47.269Z,30.00
2019-05-16T14:18:17.616Z,29.30
2019-05-16T14:20:46.606Z,29.30
2019-05-16T14:23:17.121Z,30.00
2019-05-16T14:25:48.086Z,29.30
2019-05-16T14:28:17.331Z,29.30
2019-05-16T14:30:46.896Z,29.70
2019-05-16T14:33:17.230Z,30.00
2019-05-16T14:35:47.222Z,29.00
2019-05-16T14:38:17.591Z,29.50
2019-05-16T14:40:50.151Z,29.50
2019-05-16T14:43:17.403Z,29.00
2019-05-16T14:45:46.812Z,29.10
2019-05-16T14:48:14.834Z,29.40
2019-05-16T14:50:43.576Z,30.50
2019-05-16T14:53:12.329Z,29.80
2019-05-16T14:55:41.257Z,29.40
2019-05-16T14:58:09.974Z,29.40
2019-05-16T15:00:38.944Z,29.20
2019-05-16T15:03:08.232Z,29.40
2019-05-16T15:05:42.521Z,30.00
2019-05-16T15:08:08.667Z,29.10
2019-05-16T15:10:37.889Z,29.10
2019-05-16T15:13:07.823Z,29.50
2019-05-16T15:15:37.766Z,29.70
2019-05-16T15:18:08.078Z,29.80
2019-05-16T15:20:37.307Z,29.30
2019-05-16T15:23:07.736Z,29.10
2019-05-16T15:25:37.565Z,28.80
2019-05-16T15:28:07.712Z,29.70
2019-05-16T15:30:38.960Z,28.20
2019-05-16T15:33:08.605Z,27.80
2019-05-16T15:35:38.293Z,28.10
2019-05-16T15:38:07.997Z,29.00
2019-05-16T15:40:37.570Z,28.40
2019-05-16T15:43:07.845Z,28.40
2019-05-16T15:45:43.978Z,28.90
2019-05-16T15:48:12.560Z,29.60
2019-05-16T15:50:41.929Z,29.40
2019-05-16T15:53:09.874Z,29.40
2019-05-16T15:55:38.549Z,29.80
2019-05-16T15:58:10.159Z,29.60
2019-05-16T16:00:49.163Z,29.60
2019-05-16T16:03:18.321Z,29.20
2019-05-16T16:05:47.056Z,29.30
2019-05-16T16:08:18.126Z,29.10
2019-05-16T16:10:47.922Z,29.60
2019-05-16T16:13:19.727Z,29.60
2019-05-16T16:15:53.312Z,29.80
2019-05-16T16:18:21.415Z,30.00
2019-05-16T16:20:48.033Z,30.20
2019-05-16T16:23:17.701Z,30.30
2019-05-16T16:25:50.663Z,30.20
2019-05-16T16:28:17.800Z,30.50
2019-05-16T16:30:48.037Z,30.80
2019-05-16T16:33:25.532Z,30.40
2019-05-16T16:35:48.079Z,30.70
2019-05-16T16:38:17.109Z,30.80
2019-05-16T16:40:47.988Z,31.00
2019-05-16T16:43:16.550Z,31.20
2019-05-16T16:45:47.725Z,31.80
2019-05-16T16:48:17.178Z,31.70
2019-05-16T16:50:46.053Z,31.60
2019-05-16T16:53:14.792Z,31.80
2019-05-16T16:55:43.708Z,32.60
2019-05-16T16:58:12.885Z,33.00
2019-05-16T17:00:41.645Z,33.00
2019-05-16T17:03:11.304Z,32.70
2019-05-16T17:05:40.185Z,32.60
2019-05-16T17:08:08.851Z,33.10
2019-05-16T17:10:38.193Z,34.20
2019-05-16T17:13:07.448Z,33.20
2019-05-16T17:15:36.700Z,33.90
2019-05-16T17:18:07.120Z,34.00
2019-05-16T17:20:37.093Z,33.60
2019-05-16T17:23:06.890Z,34.50
2019-05-16T17:25:36.809Z,35.20
2019-05-16T17:28:06.948Z,35.40
2019-05-16T17:30:37.049Z,35.40
2019-05-16T17:33:07.614Z,35.20
2019-05-16T17:35:38.968Z,35.60
2019-05-16T17:38:07.106Z,35.50
2019-05-16T17:40:37.908Z,34.90
2019-05-16T17:43:07.435Z,35.20
2019-05-16T17:45:37.672Z,35.60
2019-05-16T17:48:07.030Z,35.40
2019-05-16T17:50:37.383Z,35.70
2019-05-16T17:53:07.156Z,35.50
2019-05-16T17:55:37.059Z,35.80
2019-05-16T17:58:09.095Z,36.20
2019-05-16T18:00:37.055Z,35.90
2019-05-16T18:03:06.686Z,36.10
2019-05-16T18:05:37.104Z,37.00
2019-05-16T18:08:07.515Z,36.60
2019-05-16T18:10:36.724Z,36.70
2019-05-16T18:13:07.756Z,37.50
2019-05-16T18:15:36.864Z,37.30
2019-05-16T18:18:07.034Z,37.20
2019-05-16T18:20:37.293Z,38.30
2019-05-16T18:23:07.011Z,37.70
2019-05-16T18:25:36.697Z,37.80
2019-05-16T18:28:07.812Z,38.00
2019-05-16T18:30:36.861Z,37.80
2019-05-16T18:33:07.237Z,38.40
2019-05-16T18:35:36.964Z,38.50
2019-05-16T18:38:07.205Z,39.20
2019-05-16T18:40:36.973Z,38.90
2019-05-16T18:43:08.190Z,39.10
2019-05-16T18:45:36.614Z,39.20
2019-05-16T18:48:07.277Z,39.90
2019-05-16T18:50:37.619Z,39.90
2019-05-16T18:53:07.225Z,40.00
2019-05-16T18:55:37.305Z,40.00
2019-05-16T18:58:08.513Z,42.40
2019-05-16T19:00:37.743Z,41.80
2019-05-16T19:03:07.948Z,45.00
2019-05-16T19:05:37.458Z,44.30
2019-05-16T19:08:07.455Z,44.00
2019-05-16T19:10:36.804Z,43.70
2019-05-16T19:13:08.007Z,43.50
2019-05-16T19:15:37.518Z,42.70
2019-05-16T19:18:07.018Z,42.20
2019-05-16T19:20:37.522Z,42.10
2019-05-16T19:23:07.649Z,42.70
2019-05-16T19:25:36.573Z,42.40
2019-05-16T19:28:06.843Z,43.30
2019-05-16T19:30:37.481Z,42.70
2019-05-16T19:33:06.997Z,42.60
2019-05-16T19:35:36.454Z,43.00
2019-05-16T19:38:06.685Z,43.60
2019-05-16T19:40:37.569Z,44.00
2019-05-16T19:43:07.213Z,43.20
2019-05-16T19:45:37.275Z,43.40
2019-05-16T19:48:07.221Z,43.70
2019-05-16T19:50:37.214Z,44.40
2019-05-16T19:53:07.756Z,44.40
2019-05-16T19:55:36.837Z,44.40
2019-05-16T19:58:06.808Z,44.80
2019-05-16T20:00:37.464Z,44.80
2019-05-16T20:03:07.687Z,44.80
2019-05-16T20:05:37.696Z,44.90
2019-05-16T20:08:07.070Z,45.20
2019-05-16T20:10:36.703Z,45.90
2019-05-16T20:13:07.801Z,46.50
2019-05-16T20:15:36.775Z,45.50
2019-05-16T20:18:07.666Z,46.00
2019-05-16T20:20:37.217Z,45.80
2019-05-16T20:23:06.688Z,46.00
2019-05-16T20:25:36.526Z,45.80
2019-05-16T20:28:08.589Z,46.10
2019-05-16T20:30:37.248Z,46.20
2019-05-16T20:33:09.200Z,46.60
2019-05-16T20:35:37.527Z,46.90
2019-05-16T20:38:06.992Z,46.80
2019-05-16T20:40:37.468Z,47.60
2019-05-16T20:43:07.765Z,47.00
2019-05-16T20:45:39.763Z,47.00
2019-05-16T20:48:14.715Z,47.40
2019-05-16T20:50:37.653Z,47.10
2019-05-16T20:53:07.316Z,47.30
2019-05-16T20:55:37.684Z,48.00
2019-05-16T20:58:07.792Z,47.50
2019-05-16T21:00:37.885Z,48.10
2019-05-16T21:03:07.283Z,47.60
2019-05-16T21:05:38.339Z,47.50
2019-05-16T21:08:06.870Z,48.70
2019-05-16T21:10:35.853Z,48.30
2019-05-16T21:13:06.806Z,49.10
2019-05-16T21:15:37.163Z,48.70
2019-05-16T21:18:07.347Z,49.10
2019-05-16T21:20:38.743Z,49.80
2019-05-16T21:23:07.367Z,50.00
2019-05-16T21:25:37.145Z,49.60
2019-05-16T21:28:07.850Z,50.20
2019-05-16T21:30:36.891Z,49.80
2019-05-16T21:33:05.689Z,49.80
2019-05-16T21:35:36.418Z,50.10
2019-05-16T21:38:08.737Z,50.90
2019-05-16T21:40:37.130Z,50.30
2019-05-16T21:43:07.556Z,50.50
2019-05-16T21:45:37.114Z,50.50
2019-05-16T21:48:07.411Z,51.30
2019-05-16T21:50:36.855Z,51.70
2019-05-16T21:53:07.077Z,51.60
2019-05-16T21:55:36.845Z,51.90
2019-05-16T21:58:05.985Z,51.70
2019-05-16T22:00:39.325Z,52.20
2019-05-16T22:03:09.103Z,51.90
2019-05-16T22:05:57.809Z,51.50
2019-05-16T22:08:26.720Z,52.00
2019-05-16T22:10:57.354Z,51.60
2019-05-16T22:13:26.158Z,52.00
2019-05-16T22:15:56.835Z,52.00
2019-05-16T22:18:25.160Z,53.00
2019-05-16T22:20:53.760Z,51.80
2019-05-16T22:23:22.368Z,52.30
2019-05-16T22:25:51.008Z,52.60
2019-05-16T22:28:19.604Z,53.80
2019-05-16T22:30:48.744Z,53.60
2019-05-16T22:33:17.875Z,54.70
2019-05-16T22:35:49.533Z,54.60
2019-05-16T22:38:17.130Z,55.20
2019-05-16T22:40:45.733Z,54.50
2019-05-16T22:43:17.186Z,53.60
2019-05-16T22:45:46.790Z,54.10
2019-05-16T22:48:17.202Z,53.60
2019-05-16T22:50:45.420Z,54.30
2019-05-16T22:53:14.092Z,54.40
2019-05-16T22:55:42.879Z,53.80
2019-05-16T22:58:11.632Z,54.30
2019-05-16T23:00:41.426Z,54.10
2019-05-16T23:03:10.410Z,55.10
2019-05-16T23:05:39.084Z,55.10
2019-05-16T23:08:09.922Z,55.60
2019-05-16T23:10:38.144Z,55.00
2019-05-16T23:13:07.047Z,55.20
2019-05-16T23:15:35.957Z,55.60
2019-05-16T23:18:06.751Z,55.80
2019-05-16T23:20:37.002Z,55.50
2019-05-16T23:23:07.152Z,56.30
2019-05-16T23:25:37.081Z,56.00
2019-05-16T23:28:07.639Z,56.50
2019-05-16T23:30:36.960Z,56.30
2019-05-16T23:33:07.322Z,56.70
2019-05-16T23:35:37.999Z,57.00
2019-05-16T23:38:18.679Z,56.50
2019-05-16T23:40:37.581Z,56.90
2019-05-16T23:43:07.708Z,56.40
2019-05-16T23:45:37.563Z,56.40
2019-05-16T23:48:10.562Z,57.10
2019-05-16T23:50:40.065Z,57.50
2019-05-16T23:53:08.716Z,58.50
2019-05-16T23:55:37.487Z,57.70
2019-05-16T23:58:06.913Z,58.90
